Time;durP1;ratioP1;P1;durP2;ratioP2;P2;SDS_P1;SDS_P2;PMS_P1;PMS_P2;Temp;Humidity;BMP_temperature;BMP_pressure;BME280_temperature;BME280_humidity;BME280_pressure;Samples;Min_cycle;Max_cycle;Signal;HPM_P1;HPM_P2
2021/07/03 00:01:14;;;;;;;4.07;2.80;;;;;;;28.22;36.34;96774.47;4933871;28;20423;-35
2021/07/03 00:03:39;;;;;;;4.10;2.72;;;;;;;28.23;36.08;96772.69;4939932;28;20090;-32
2021/07/03 00:06:05;;;;;;;4.25;2.63;;;;;;;28.23;36.07;96762.16;4950252;28;20038;-27
2021/07/03 00:08:31;;;;;;;5.43;3.00;;;;;;;28.24;35.97;96766.47;4938482;28;20062;-32
2021/07/03 00:10:57;;;;;;;3.65;2.88;;;;;;;28.24;36.07;96763.84;4950994;28;20031;-35
2021/07/03 00:13:22;;;;;;;3.40;2.67;;;;;;;28.24;36.04;96775.22;4951499;28;20039;-32
2021/07/03 00:15:47;;;;;;;3.38;2.90;;;;;;;28.24;35.85;96772.59;4936520;28;20023;-32
2021/07/03 00:18:13;;;;;;;3.47;2.60;;;;;;;28.23;36.11;96767.41;4941843;28;20027;-32
2021/07/03 00:20:39;;;;;;;3.92;2.60;;;;;;;28.24;35.90;96766.47;4934310;28;20035;-33
2021/07/03 00:23:05;;;;;;;3.88;2.83;;;;;;;28.23;35.85;96765.66;4932613;28;20058;-33
2021/07/03 00:25:31;;;;;;;4.22;2.45;;;;;;;28.23;36.04;96768.28;4929965;28;20038;-31
2021/07/03 00:27:56;;;;;;;3.55;2.95;;;;;;;28.23;35.80;96772.69;4937204;28;20023;-36
2021/07/03 00:30:22;;;;;;;3.83;2.60;;;;;;;28.24;35.66;96767.31;4934995;28;20057;-32
2021/07/03 00:32:47;;;;;;;3.33;2.50;;;;;;;28.24;35.80;96769.97;4932137;28;20031;-33
2021/07/03 00:35:13;;;;;;;4.40;2.92;;;;;;;28.25;35.76;96765.53;4936685;28;20079;-30
2021/07/03 00:37:38;;;;;;;4.65;2.85;;;;;;;28.24;35.69;96763.84;4931357;28;20686;-34
2021/07/03 00:40:04;;;;;;;4.60;2.80;;;;;;;28.24;35.74;96764.69;4932883;28;20654;-31
2021/07/03 00:42:30;;;;;;;3.50;2.83;;;;;;;28.24;35.63;96764.69;4942764;28;20024;-37
2021/07/03 00:44:55;;;;;;;3.58;2.65;;;;;;;28.24;35.59;96763.84;4950443;28;20551;-32
2021/07/03 00:47:20;;;;;;;3.47;2.30;;;;;;;28.25;35.56;96768.16;4935736;28;20706;-34
2021/07/03 00:49:46;;;;;;;4.95;2.55;;;;;;;28.24;35.62;96771.75;4936434;28;20378;-29
2021/07/03 00:52:11;;;;;;;3.05;2.50;;;;;;;28.24;35.51;96763.84;4932821;28;20612;-33
2021/07/03 00:54:37;;;;;;;3.45;2.30;;;;;;;28.24;35.46;96763.84;4952712;28;20337;-32
2021/07/03 00:57:03;;;;;;;3.75;2.60;;;;;;;28.24;35.62;96763.84;4935176;28;20027;-33
2021/07/03 00:59:47;;;;;;;3.47;2.67;;;;;;;28.25;35.49;96770.78;4936041;28;20027;-32
2021/07/03 01:02:15;;;;;;;2.92;2.63;;;;;;;28.23;35.37;96765.66;4935433;28;20595;-34
2021/07/03 01:04:41;;;;;;;4.75;2.50;;;;;;;28.24;35.39;96766.47;4932422;28;20421;-32
2021/07/03 01:07:09;;;;;;;2.92;2.40;;;;;;;28.25;35.40;96762.88;4933134;28;20034;-33
2021/07/03 01:09:35;;;;;;;3.03;2.60;;;;;;;28.24;35.33;96758.56;4933396;28;20038;-33
2021/07/03 01:12:00;;;;;;;3.17;2.65;;;;;;;28.23;35.27;96760.38;4944298;28;20113;-34
2021/07/03 01:14:25;;;;;;;2.95;2.65;;;;;;;28.24;35.17;96758.56;4929713;28;20521;-34
2021/07/03 01:16:51;;;;;;;5.38;2.80;;;;;;;28.25;35.17;96765.53;4948802;28;20097;-33
2021/07/03 01:19:17;;;;;;;7.47;2.78;;;;;;;28.23;35.14;96762.16;4932211;28;20857;-31
2021/07/03 01:21:48;;;;;;;4.00;2.90;;;;;;;28.24;35.31;96758.56;4948659;28;20038;-34
2021/07/03 01:24:14;;;;;;;5.22;2.35;;;;;;;28.23;35.27;96756.88;4934709;28;20027;-35
2021/07/03 01:26:47;;;;;;;3.33;2.60;;;;;;;28.23;35.25;96747.19;4951438;28;20435;-33
2021/07/03 01:29:13;;;;;;;2.95;2.30;;;;;;;28.23;35.25;96749.84;4934839;28;20142;-34
2021/07/03 01:31:44;;;;;;;3.30;2.45;;;;;;;28.23;35.34;96747.19;4935047;28;20961;-33
2021/07/03 01:34:10;;;;;;;3.28;2.50;;;;;;;28.23;35.18;96751.63;4937908;28;20070;-32
2021/07/03 01:36:36;;;;;;;3.88;2.33;;;;;;;28.23;35.10;96751.63;4947544;28;20031;-32
2021/07/03 01:39:05;;;;;;;4.85;2.75;;;;;;;28.24;35.21;96753.31;4950700;28;20039;-30
2021/07/03 01:41:31;;;;;;;4.15;2.40;;;;;;;28.22;34.98;96755.19;4934332;28;20081;-34
2021/07/03 01:43:56;;;;;;;2.70;2.30;;;;;;;28.23;35.10;96756.88;4937859;28;20038;-33
2021/07/03 01:46:24;;;;;;;3.47;2.22;;;;;;;28.23;35.13;96764.78;4935122;28;20745;-34
2021/07/03 01:48:49;;;;;;;3.20;2.53;;;;;;;28.23;35.17;96764.78;4935500;28;20034;-29
2021/07/03 01:51:15;;;;;;;2.55;2.08;;;;;;;28.23;35.04;96767.41;4934441;28;20026;-32
2021/07/03 01:53:40;;;;;;;2.55;2.35;;;;;;;28.22;34.83;96769.19;4934233;28;20413;-34
2021/07/03 01:56:12;;;;;;;4.80;2.50;;;;;;;28.23;34.88;96762.16;4931067;28;20149;-32
2021/07/03 01:58:37;;;;;;;4.38;2.53;;;;;;;28.22;34.94;96760.47;4934420;28;20110;-34
2021/07/03 02:01:03;;;;;;;3.17;2.70;;;;;;;28.22;34.76;96755.19;4932432;28;20038;-32
2021/07/03 02:03:29;;;;;;;3.67;2.63;;;;;;;28.22;34.89;96750.75;4946900;28;20385;-33
2021/07/03 02:05:54;;;;;;;8.18;2.58;;;;;;;28.22;34.94;96752.56;4934430;28;20105;-32
2021/07/03 02:08:21;;;;;;;4.13;2.30;;;;;;;28.22;34.75;96744.66;4948541;28;20145;-34
2021/07/03 02:10:46;;;;;;;2.58;2.30;;;;;;;28.21;34.90;96737.69;4931173;28;20755;-31
2021/07/03 02:13:12;;;;;;;2.88;2.58;;;;;;;28.22;34.94;96750.75;4951229;28;20054;-35
2021/07/03 02:15:37;;;;;;;2.85;2.42;;;;;;;28.23;34.77;96748.97;4930030;28;20038;-45
2021/07/03 02:18:03;;;;;;;3.08;2.67;;;;;;;28.21;34.94;96748.22;4931720;28;20090;-35
2021/07/03 02:20:31;;;;;;;2.90;2.40;;;;;;;28.22;34.89;96750.75;4930931;28;20027;-28
2021/07/03 02:22:56;;;;;;;2.60;2.20;;;;;;;28.21;34.82;96743.81;4937867;28;20202;-32
2021/07/03 02:25:21;;;;;;;4.88;2.53;;;;;;;28.21;34.71;96743.81;4930889;28;20346;-33
2021/07/03 02:27:49;;;;;;;3.05;2.35;;;;;;;28.22;34.73;96742.03;4935085;28;20686;-33
2021/07/03 02:30:15;;;;;;;3.58;2.40;;;;;;;28.21;34.87;96741.16;4933733;28;20105;-31
2021/07/03 02:32:41;;;;;;;7.70;2.72;;;;;;;28.21;34.66;96737.69;4934131;28;20741;-32
2021/07/03 02:35:07;;;;;;;3.00;2.53;;;;;;;28.21;34.81;96733.25;4932352;28;20104;-30
2021/07/03 02:37:32;;;;;;;4.35;2.75;;;;;;;28.20;34.54;96731.59;4937600;28;20027;-32
2021/07/03 02:39:58;;;;;;;2.95;2.50;;;;;;;28.21;34.79;96732.41;4953534;28;20045;-36
2021/07/03 02:42:23;;;;;;;4.18;2.50;;;;;;;28.21;34.54;96732.41;4940585;28;20027;-33
2021/07/03 02:44:48;;;;;;;3.65;2.40;;;;;;;28.21;34.67;96733.25;4937421;28;20031;-33
2021/07/03 02:47:14;;;;;;;4.25;2.50;;;;;;;28.20;34.76;96731.59;4941437;28;20031;-36
2021/07/03 02:49:39;;;;;;;3.35;2.58;;;;;;;28.21;34.54;96742.94;4955786;28;20034;-35
2021/07/03 02:52:05;;;;;;;3.47;2.55;;;;;;;28.21;34.52;96748.22;4939664;28;20069;-33
2021/07/03 02:54:30;;;;;;;2.40;2.20;;;;;;;28.20;34.60;96750.03;4940327;28;20065;-33
2021/07/03 02:56:57;;;;;;;5.13;2.55;;;;;;;28.22;34.77;96749.94;4939653;28;20363;-35
2021/07/03 02:59:26;;;;;;;3.30;2.25;;;;;;;28.21;34.72;96749.06;4936185;28;20043;-33
2021/07/03 03:01:51;;;;;;;3.72;2.22;;;;;;;28.21;34.67;96745.56;4937806;28;20038;-33
2021/07/03 03:04:17;;;;;;;2.83;2.42;;;;;;;28.20;34.66;96741.25;4933840;28;20041;-31
2021/07/03 03:06:43;;;;;;;2.47;2.28;;;;;;;28.21;34.60;96742.94;4928813;28;20035;-31
2021/07/03 03:09:08;;;;;;;4.28;2.50;;;;;;;28.21;34.62;96742.94;4929173;28;20055;-32
2021/07/03 03:11:34;;;;;;;2.65;2.38;;;;;;;28.20;34.41;96733.34;4938104;28;20030;-35
2021/07/03 03:13:59;;;;;;;3.60;2.58;;;;;;;28.21;34.49;96735.03;4940475;28;20031;-32
2021/07/03 03:16:26;;;;;;;2.83;2.30;;;;;;;28.20;34.50;96736.84;4931403;28;20086;-33
2021/07/03 03:18:52;;;;;;;2.95;2.35;;;;;;;28.21;34.58;96737.69;4942524;28;20323;-33
2021/07/03 03:21:17;;;;;;;3.03;2.45;;;;;;;28.20;34.22;96736.84;4937264;28;20792;-31
2021/07/03 03:23:42;;;;;;;5.13;2.40;;;;;;;28.19;34.56;96735.16;4934659;28;20030;-33
2021/07/03 03:26:08;;;;;;;3.65;2.47;;;;;;;28.20;34.32;96730.72;4937072;28;20038;-33
2021/07/03 03:28:33;;;;;;;3.20;2.30;;;;;;;28.20;34.34;96730.72;4934682;28;20042;-34
2021/07/03 03:30:59;;;;;;;2.63;2.15;;;;;;;28.20;34.52;96730.72;4935118;28;20042;-31
2021/07/03 03:33:24;;;;;;;3.95;2.67;;;;;;;28.18;34.52;96734.31;4936386;28;20027;-33
2021/07/03 03:35:49;;;;;;;2.63;2.30;;;;;;;28.19;34.41;96724.63;4937917;28;20035;-33
2021/07/03 03:38:15;;;;;;;2.40;2.17;;;;;;;28.19;34.48;96727.25;4937626;28;20109;-29
2021/07/03 03:40:42;;;;;;;4.45;2.38;;;;;;;28.20;34.33;96725.44;4935081;28;20219;-33
2021/07/03 03:43:08;;;;;;;2.30;2.03;;;;;;;28.19;34.37;96735.16;4937923;28;20079;-29
2021/07/03 03:45:33;;;;;;;2.53;2.30;;;;;;;28.20;34.51;96738.63;4937203;28;20031;-33
2021/07/03 03:47:58;;;;;;;2.83;2.35;;;;;;;28.17;34.22;96732.63;4934301;28;20064;-28
2021/07/03 03:50:24;;;;;;;2.50;2.30;;;;;;;28.17;34.41;96737.91;4935892;28;20035;-29
2021/07/03 03:52:49;;;;;;;2.70;2.40;;;;;;;28.16;34.17;96741.47;4939734;28;20027;-34
2021/07/03 03:55:17;;;;;;;3.55;2.55;;;;;;;28.16;34.57;96736.22;4968651;28;20037;-31
2021/07/03 03:57:43;;;;;;;3.42;2.45;;;;;;;28.17;34.29;96737.91;4949740;28;20030;-33
2021/07/03 04:00:09;;;;;;;3.40;2.53;;;;;;;28.17;34.31;96735.25;4933889;28;20568;-28
2021/07/03 04:02:34;;;;;;;3.80;2.75;;;;;;;28.17;34.22;96737.91;4934857;28;20561;-32
2021/07/03 04:05:00;;;;;;;3.65;2.20;;;;;;;28.17;34.25;96737.91;4938087;28;20039;-34
2021/07/03 04:07:25;;;;;;;2.67;2.40;;;;;;;28.17;34.42;96743.16;4934094;28;20038;-30
2021/07/03 04:09:51;;;;;;;3.53;2.13;;;;;;;28.16;34.36;96736.22;4934397;28;20493;-33
2021/07/03 04:12:16;;;;;;;7.20;2.65;;;;;;;28.16;34.41;96738.84;4937437;28;20034;-32
2021/07/03 04:14:42;;;;;;;3.40;2.50;;;;;;;28.16;34.45;96736.22;4964062;28;20027;-29
2021/07/03 04:17:07;;;;;;;4.88;2.35;;;;;;;28.16;34.17;96738.84;4938244;28;20030;-31
2021/07/03 04:19:33;;;;;;;2.50;2.30;;;;;;;28.16;34.11;96735.34;4962217;28;20027;-31
2021/07/03 04:21:58;;;;;;;3.33;2.40;;;;;;;28.16;34.39;96741.47;4933115;28;20031;-30
2021/07/03 04:24:24;;;;;;;2.58;2.38;;;;;;;28.16;34.40;96735.34;4936658;28;20259;-33
2021/07/03 04:26:49;;;;;;;3.50;2.40;;;;;;;28.17;34.38;96743.16;4934925;28;20073;-33
2021/07/03 04:29:14;;;;;;;3.80;2.45;;;;;;;28.16;34.32;96740.63;4934168;28;20122;-29
2021/07/03 04:31:40;;;;;;;3.25;2.30;;;;;;;28.17;34.24;96751.06;4933908;28;20035;-33
2021/07/03 04:34:05;;;;;;;2.88;2.40;;;;;;;28.15;34.24;96739.75;4934460;28;20167;-30
2021/07/03 04:36:31;;;;;;;2.45;2.25;;;;;;;28.16;34.28;96735.34;4934039;28;20039;-33
2021/07/03 04:38:56;;;;;;;3.60;2.65;;;;;;;28.15;34.07;96734.50;4933603;28;20327;-37
2021/07/03 04:41:22;;;;;;;3.05;2.40;;;;;;;28.16;34.31;96738.84;4938032;28;20027;-31
2021/07/03 04:43:47;;;;;;;2.78;2.53;;;;;;;28.15;34.26;96734.50;4938629;28;20887;-31
2021/07/03 04:46:12;;;;;;;2.97;2.67;;;;;;;28.16;34.33;96736.22;4937822;28;20057;-36
2021/07/03 04:48:38;;;;;;;4.45;2.35;;;;;;;28.16;33.94;96732.72;4935598;28;20034;-29
2021/07/03 04:51:03;;;;;;;3.78;2.15;;;;;;;28.15;34.14;96734.50;4935536;28;20583;-34
2021/07/03 04:53:29;;;;;;;4.40;2.30;;;;;;;28.14;34.00;96730.19;4936528;28;20035;-33
2021/07/03 04:55:54;;;;;;;4.32;2.60;;;;;;;28.14;34.06;96738.09;4937807;28;20030;-34
2021/07/03 04:58:19;;;;;;;2.60;2.35;;;;;;;28.15;34.02;96729.22;4935436;28;20160;-32
2021/07/03 05:00:45;;;;;;;3.72;2.40;;;;;;;28.16;34.17;96728.31;4934010;28;20030;-33
2021/07/03 05:03:10;;;;;;;3.60;2.40;;;;;;;28.14;34.10;96732.81;4934166;28;20047;-32
2021/07/03 05:05:36;;;;;;;3.67;2.42;;;;;;;28.15;34.12;96721.31;4936237;28;20030;-32
2021/07/03 05:08:01;;;;;;;2.55;2.33;;;;;;;28.15;34.27;96731.84;4933350;28;20038;-28
2021/07/03 05:10:26;;;;;;;4.47;2.25;;;;;;;28.15;34.06;96717.88;4933414;28;20349;-31
2021/07/03 05:12:53;;;;;;;3.67;2.90;;;;;;;28.16;34.21;96725.66;4937012;28;20027;-32
2021/07/03 05:15:18;;;;;;;2.70;2.50;;;;;;;28.15;34.00;96723.97;4937344;28;20695;-34
2021/07/03 05:17:44;;;;;;;4.65;2.40;;;;;;;28.16;34.00;96722.19;4937861;28;20103;-29
2021/07/03 05:20:10;;;;;;;4.45;2.55;;;;;;;28.16;34.21;96714.28;4931623;28;20117;-33
2021/07/03 05:22:35;;;;;;;3.15;2.55;;;;;;;28.15;34.16;96716.06;4935737;28;20796;-32
2021/07/03 05:25:01;;;;;;;4.57;2.50;;;;;;;28.16;33.98;96715.13;4934503;28;20116;-29
2021/07/03 05:27:26;;;;;;;3.20;2.40;;;;;;;28.16;34.07;96716.91;4935741;28;20038;-32
2021/07/03 05:29:51;;;;;;;4.45;2.67;;;;;;;28.16;34.24;96717.78;4934316;28;20536;-33
2021/07/03 05:32:17;;;;;;;2.70;2.40;;;;;;;28.17;34.05;96715.97;4929520;28;20035;-35
2021/07/03 05:34:42;;;;;;;3.70;2.22;;;;;;;28.17;34.26;96713.31;4930560;28;20027;-34
2021/07/03 05:37:08;;;;;;;4.78;2.65;;;;;;;28.18;34.25;96718.50;4930980;28;20089;-34
2021/07/03 05:39:33;;;;;;;2.85;2.45;;;;;;;28.17;34.15;96714.19;4948168;28;20790;-35
2021/07/03 05:41:59;;;;;;;2.70;2.50;;;;;;;28.14;34.27;96706.47;4935828;28;20035;-33
2021/07/03 05:44:25;;;;;;;3.35;2.40;;;;;;;28.18;34.01;96713.22;4933074;28;20721;-35
2021/07/03 05:46:51;;;;;;;3.00;2.58;;;;;;;28.19;34.07;96714.09;4932359;28;20031;-32
2021/07/03 05:49:17;;;;;;;2.72;2.50;;;;;;;28.19;34.26;96708.81;4931487;28;20038;-31
2021/07/03 05:51:42;;;;;;;2.50;2.20;;;;;;;28.20;34.34;96709.66;4931248;28;20508;-34
2021/07/03 05:54:08;;;;;;;3.05;2.38;;;;;;;28.20;34.35;96710.50;4934668;28;20027;-31
2021/07/03 05:56:33;;;;;;;2.95;2.53;;;;;;;28.21;34.33;96721.88;4936753;28;20264;-30
2021/07/03 05:59:01;;;;;;;3.05;2.75;;;;;;;28.22;34.46;96713.03;4933810;28;20050;-34
2021/07/03 06:01:26;;;;;;;2.90;2.50;;;;;;;28.22;34.26;96713.88;4932822;28;20094;-27
2021/07/03 06:03:52;;;;;;;6.05;2.60;;;;;;;28.22;34.34;96707.78;4934773;28;20453;-34
2021/07/03 06:06:17;;;;;;;2.75;2.10;;;;;;;28.23;34.63;96709.47;4932858;28;20038;-33
2021/07/03 06:08:43;;;;;;;3.50;2.22;;;;;;;28.23;34.51;96714.72;4933294;28;20082;-31
2021/07/03 06:11:08;;;;;;;4.60;2.47;;;;;;;28.23;34.58;96710.31;4935599;28;20426;-29
2021/07/03 06:13:35;;;;;;;16.65;2.38;;;;;;;28.23;34.60;96704.19;4941722;28;20090;-32
2021/07/03 06:16:00;;;;;;;8.05;2.45;;;;;;;28.24;34.73;96690.91;4936433;28;20161;-33
2021/07/03 06:18:26;;;;;;;8.20;3.03;;;;;;;28.25;34.80;96697.00;4935326;28;20035;-33
2021/07/03 06:20:54;;;;;;;6.43;2.50;;;;;;;28.26;34.89;96701.41;4929626;28;20548;-30
2021/07/03 06:23:19;;;;;;;8.25;2.90;;;;;;;28.28;34.89;96696.84;4936462;28;20439;-36
2021/07/03 06:25:45;;;;;;;5.90;2.78;;;;;;;28.28;34.72;96699.50;4932339;28;20027;-33
2021/07/03 06:28:10;;;;;;;7.13;2.75;;;;;;;28.30;34.87;96697.63;4932110;28;20034;-34
2021/07/03 06:30:36;;;;;;;4.65;2.60;;;;;;;28.30;34.97;96698.44;4929268;28;20219;-31
2021/07/03 06:33:01;;;;;;;6.78;3.08;;;;;;;28.34;34.76;96701.72;4928594;28;20918;-34
2021/07/03 06:35:26;;;;;;;29.08;5.18;;;;;;;28.35;35.53;96706.06;4928388;28;20257;-32
2021/07/03 06:37:52;;;;;;;22.83;4.18;;;;;;;28.36;35.89;96699.84;4930985;28;20945;-31
2021/07/03 06:40:17;;;;;;;18.80;4.13;;;;;;;28.37;35.64;96696.25;4931704;28;20591;-34
2021/07/03 06:42:43;;;;;;;13.48;3.50;;;;;;;28.39;35.85;96697.00;4932809;28;20043;-34
2021/07/03 06:45:08;;;;;;;13.38;3.65;;;;;;;28.37;35.77;96690.16;4950060;28;20077;-31
2021/07/03 06:47:33;;;;;;;10.95;3.35;;;;;;;28.40;35.86;96696.06;4930922;28;21060;-33
2021/07/03 06:49:59;;;;;;;12.60;3.90;;;;;;;28.41;35.91;96696.88;4928530;28;20734;-33
2021/07/03 06:52:24;;;;;;;11.50;3.05;;;;;;;28.41;35.91;96700.38;4933146;28;20099;-32
2021/07/03 06:54:50;;;;;;;11.27;3.05;;;;;;;28.43;35.92;96702.91;4929465;28;21132;-34
2021/07/03 06:57:15;;;;;;;13.80;3.97;;;;;;;28.43;35.70;96695.00;4932306;28;20049;-30
2021/07/03 06:59:40;;;;;;;20.67;3.70;;;;;;;28.45;35.89;96702.81;4935255;28;20035;-33
2021/07/03 07:02:06;;;;;;;12.55;5.15;;;;;;;28.46;35.17;96704.50;4929712;28;20038;-33
2021/07/03 07:04:31;;;;;;;9.88;5.40;;;;;;;28.46;34.62;96709.78;4934238;28;20019;-33
2021/07/03 07:06:57;;;;;;;8.63;4.85;;;;;;;28.44;34.46;96704.59;4933113;28;20124;-32
2021/07/03 07:09:23;;;;;;;6.95;4.50;;;;;;;28.44;33.98;96701.97;4931957;28;20570;-33
2021/07/03 07:11:48;;;;;;;10.90;4.60;;;;;;;28.42;33.94;96699.44;4928504;28;20486;-30
2021/07/03 07:14:14;;;;;;;12.05;5.20;;;;;;;28.42;33.82;96699.44;4931625;28;20086;-33
2021/07/03 07:16:40;;;;;;;12.82;4.90;;;;;;;28.41;33.50;96697.75;4932501;28;21272;-32
2021/07/03 07:19:05;;;;;;;13.07;5.15;;;;;;;28.41;33.38;96697.75;4930138;28;20300;-34
2021/07/03 07:21:31;;;;;;;7.43;4.60;;;;;;;28.40;33.25;96693.44;4943119;28;20817;-31
2021/07/03 07:23:56;;;;;;;8.20;5.25;;;;;;;28.40;33.29;96690.78;4934045;28;20031;-33
2021/07/03 07:26:22;;;;;;;9.30;5.13;;;;;;;28.39;33.15;96691.75;4934651;28;20023;-36
2021/07/03 07:28:49;;;;;;;5.18;4.47;;;;;;;28.39;32.87;96683.84;4934388;28;20026;-34
2021/07/03 07:31:14;;;;;;;11.07;5.05;;;;;;;28.38;32.99;96687.38;4934494;28;20069;-30
2021/07/03 07:33:39;;;;;;;7.18;4.63;;;;;;;28.39;32.85;96682.97;4935558;28;20039;-28
2021/07/03 07:36:05;;;;;;;6.88;4.65;;;;;;;28.38;32.74;96687.38;4931875;28;20035;-33
2021/07/03 07:38:30;;;;;;;9.13;4.57;;;;;;;28.38;32.80;96682.13;4934812;28;20023;-33
2021/07/03 07:40:56;;;;;;;8.10;5.35;;;;;;;28.38;32.59;96679.47;4933718;28;20042;-32
2021/07/03 07:43:21;;;;;;;6.28;4.15;;;;;;;28.40;32.57;96679.38;4933810;28;20038;-29
2021/07/03 07:45:47;;;;;;;8.95;4.80;;;;;;;28.40;32.56;96671.47;4935038;28;20054;-31
2021/07/03 07:48:12;;;;;;;7.55;4.72;;;;;;;28.40;32.44;96671.47;4933857;28;20066;-33
2021/07/03 07:50:37;;;;;;;6.43;4.50;;;;;;;28.39;32.33;96668.03;4937153;28;20058;-34
2021/07/03 07:53:03;;;;;;;8.55;5.30;;;;;;;28.37;31.86;96662.00;4933918;28;20069;-30
2021/07/03 07:55:28;;;;;;;15.60;5.22;;;;;;;28.37;31.94;96661.16;4921925;28;20031;-32
2021/07/03 07:57:54;;;;;;;11.05;4.88;;;;;;;28.34;31.63;96653.44;4946967;28;20121;-29
2021/07/03 08:00:21;;;;;;;7.22;4.90;;;;;;;28.29;31.68;96656.38;4933433;28;20042;-31
2021/07/03 08:02:47;;;;;;;5.40;4.30;;;;;;;28.27;32.05;96653.84;4932010;28;20039;-34
2021/07/03 08:05:12;;;;;;;6.55;4.68;;;;;;;28.26;31.65;96651.34;4932075;28;20020;-29
2021/07/03 08:07:38;;;;;;;5.80;4.72;;;;;;;28.25;31.74;96652.22;4934446;28;20240;-32
2021/07/03 08:10:04;;;;;;;5.78;4.32;;;;;;;28.24;31.85;96648.75;4932675;28;20085;-33
2021/07/03 08:12:29;;;;;;;6.45;4.40;;;;;;;28.24;31.97;96647.91;4947845;28;20220;-34
2021/07/03 08:14:55;;;;;;;6.65;4.40;;;;;;;28.24;31.96;96654.03;4944969;28;20030;-34
2021/07/03 08:17:20;;;;;;;6.85;4.47;;;;;;;28.25;32.06;96652.22;4934307;28;20920;-32
2021/07/03 08:19:46;;;;;;;9.70;4.70;;;;;;;28.25;32.00;96645.19;4935284;28;20022;-33
2021/07/03 08:22:11;;;;;;;5.75;4.38;;;;;;;28.25;31.87;96650.47;4935060;28;20031;-31
2021/07/03 08:24:36;;;;;;;7.82;4.32;;;;;;;28.26;31.82;96651.34;4933206;28;21168;-34
2021/07/03 08:27:03;;;;;;;7.55;4.70;;;;;;;28.25;31.93;96658.38;4932799;28;20581;-30
2021/07/03 08:29:28;;;;;;;5.72;4.20;;;;;;;28.27;31.91;96647.75;4948255;28;20857;-31
2021/07/03 08:31:53;;;;;;;8.95;4.32;;;;;;;28.27;31.99;96650.38;4933808;28;20039;-31
2021/07/03 08:34:19;;;;;;;6.32;4.22;;;;;;;28.27;31.96;96655.66;4932965;28;20490;-32
2021/07/03 08:36:44;;;;;;;8.13;4.80;;;;;;;28.27;31.88;96653.84;4946632;28;20090;-31
2021/07/03 08:39:10;;;;;;;6.60;4.68;;;;;;;28.28;31.93;96657.34;4934159;28;20093;-32
2021/07/03 08:41:35;;;;;;;5.22;4.53;;;;;;;28.28;31.75;96665.22;4932917;28;20027;-30
2021/07/03 08:44:00;;;;;;;6.30;4.30;;;;;;;28.27;31.90;96656.47;4934041;28;20716;-31
2021/07/03 08:46:26;;;;;;;9.07;4.72;;;;;;;28.29;32.22;96657.22;4933252;28;20296;-29
2021/07/03 08:48:55;;;;;;;12.35;4.68;;;;;;;28.30;32.04;96652.81;4932697;28;20034;-34
2021/07/03 08:51:22;;;;;;;9.10;5.00;;;;;;;28.31;32.05;96643.97;4933663;28;20042;-33
2021/07/03 08:53:48;;;;;;;7.18;4.60;;;;;;;28.32;32.23;96645.63;4935170;28;20077;-31
2021/07/03 08:56:14;;;;;;;10.32;4.50;;;;;;;28.32;32.43;96645.63;4931329;28;20426;-30
2021/07/03 08:58:39;;;;;;;19.83;4.43;;;;;;;28.36;32.41;96651.53;4933561;28;20031;-35
2021/07/03 09:01:05;;;;;;;7.93;4.35;;;;;;;28.37;32.30;96653.25;4930981;28;20693;-33
2021/07/03 09:03:30;;;;;;;8.90;4.50;;;;;;;28.39;32.43;96648.72;4934449;28;20325;-30
2021/07/03 09:06:00;;;;;;;12.95;4.80;;;;;;;28.41;32.26;96649.44;4931684;28;20054;-33
2021/07/03 09:08:26;;;;;;;9.85;4.25;;;;;;;28.43;32.08;96653.69;4961242;28;20031;-32
2021/07/03 09:11:08;;;;;;;6.72;4.40;;;;;;;28.43;32.25;96639.66;4963506;28;20386;-34
2021/07/03 09:13:35;;;;;;;6.30;3.88;;;;;;;28.45;32.14;96634.28;4938501;28;20035;-36
2021/07/03 09:16:01;;;;;;;9.23;4.65;;;;;;;28.46;32.18;96633.34;4931585;28;20134;-32
2021/07/03 09:18:27;;;;;;;23.42;5.72;;;;;;;28.46;32.50;96626.28;4932241;28;21409;-31
2021/07/03 09:20:57;;;;;;;6.90;4.05;;;;;;;28.48;32.51;96631.44;4930737;28;20085;-34
2021/07/03 09:23:24;;;;;;;9.32;4.63;;;;;;;28.49;32.53;96630.50;4957303;28;20035;-33
2021/07/03 09:25:50;;;;;;;15.35;4.70;;;;;;;28.49;32.50;96633.16;4929622;28;20023;-35
2021/07/03 09:28:19;;;;;;;19.10;5.25;;;;;;;28.51;32.30;96633.88;4932206;28;20037;-31
2021/07/03 09:30:47;;;;;;;10.60;4.30;;;;;;;28.52;32.24;96638.19;4931734;28;20051;-33
2021/07/03 09:33:20;;;;;;;15.63;4.20;;;;;;;28.52;31.99;96625.88;4928545;28;20038;-33
2021/07/03 09:35:55;;;;;;;10.43;4.10;;;;;;;28.53;31.64;96616.19;4930426;28;20158;-36
2021/07/03 09:38:27;;;;;;;11.43;4.13;;;;;;;28.54;31.74;96612.59;4931664;28;20043;-35
2021/07/03 09:40:53;;;;;;;11.65;3.83;;;;;;;28.53;31.69;96608.28;4932301;28;20034;-36
2021/07/03 09:43:18;;;;;;;7.53;4.18;;;;;;;28.53;31.49;96598.53;4950160;28;20030;-34
2021/07/03 09:45:48;;;;;;;10.25;3.95;;;;;;;28.54;31.55;96599.41;4933360;28;20715;-35
2021/07/03 09:48:13;;;;;;;9.95;3.90;;;;;;;28.55;31.43;96606.34;4932419;28;20035;-33
2021/07/03 09:50:43;;;;;;;9.60;3.90;;;;;;;28.55;31.46;96616.91;4927553;28;20176;-30
2021/07/03 09:53:08;;;;;;;14.88;4.80;;;;;;;28.55;31.62;96609.00;4932565;28;20340;-33
2021/07/03 09:55:37;;;;;;;9.10;4.20;;;;;;;28.56;31.40;96610.69;4932335;28;20034;-34
2021/07/03 09:58:03;;;;;;;8.20;4.82;;;;;;;28.56;31.43;96605.41;4937477;28;20058;-33
2021/07/03 10:00:29;;;;;;;6.80;4.97;;;;;;;28.57;31.24;96607.13;4943780;28;20127;-30
2021/07/03 10:02:55;;;;;;;7.85;5.25;;;;;;;28.56;31.27;96606.25;4930304;28;20943;-36
2021/07/03 10:05:21;;;;;;;7.53;4.50;;;;;;;28.57;31.42;96604.47;4962419;28;20034;-33
2021/07/03 10:07:48;;;;;;;9.07;4.38;;;;;;;28.58;31.38;96592.13;4934781;28;20038;-29
2021/07/03 10:10:15;;;;;;;10.27;4.20;;;;;;;28.58;31.48;96587.72;4931571;28;20722;-32
2021/07/03 10:12:43;;;;;;;17.35;4.25;;;;;;;28.60;31.58;96591.06;4942934;28;20055;-33
2021/07/03 10:15:09;;;;;;;10.20;4.60;;;;;;;28.60;31.60;96585.78;4941974;28;20285;-28
2021/07/03 10:17:35;;;;;;;13.23;4.43;;;;;;;28.57;31.66;96580.75;4932662;28;20079;-30
2021/07/03 10:20:00;;;;;;;9.82;4.20;;;;;;;28.61;31.60;96592.78;4962853;28;20158;-34
2021/07/03 10:22:31;;;;;;;17.13;4.47;;;;;;;28.64;31.51;96586.44;4925646;28;20392;-30
2021/07/03 10:24:57;;;;;;;14.73;4.80;;;;;;;28.64;31.88;96587.28;4930043;28;20030;-33
2021/07/03 10:27:30;;;;;;;29.63;5.18;;;;;;;28.66;32.05;96580.13;4929293;28;20022;-34
2021/07/03 10:31:01;;;;;;;8.93;4.47;;;;;;;-148.56;100.00;61375.16;4928081;28;20408;-32
2021/07/03 10:34:32;;;;;;;14.40;5.00;;;;;;;-148.56;100.00;61375.16;4928862;28;20563;-32
2021/07/03 10:37:59;;;;;;;11.85;4.70;;;;;;;-148.56;100.00;61375.16;4930998;28;20035;-29
2021/07/03 10:41:25;;;;;;;11.77;4.65;;;;;;;-148.56;100.00;61375.16;4961872;28;20054;-33
2021/07/03 10:44:52;;;;;;;5.95;4.03;;;;;;;-148.56;100.00;61375.16;4930090;28;20157;-32
2021/07/03 10:48:17;;;;;;;13.40;4.13;;;;;;;-148.56;100.00;61375.16;4927941;28;20063;-34
2021/07/03 10:51:42;;;;;;;6.65;4.03;;;;;;;-148.56;100.00;61375.16;4927714;28;20437;-33
2021/07/03 10:55:11;;;;;;;12.05;4.45;;;;;;;-148.56;100.00;61375.16;4930875;28;20062;-36
2021/07/03 10:57:57;;;;;;;8.52;4.50;;;;;;;28.66;32.05;96580.13;4928879;28;20035;-32
2021/07/03 11:00:23;;;;;;;8.40;4.30;;;;;;;28.76;31.53;96548.66;4930567;28;20577;-32
2021/07/03 11:02:48;;;;;;;7.07;4.10;;;;;;;28.76;31.54;96553.13;4930640;28;20038;-30
2021/07/03 11:05:16;;;;;;;13.65;4.75;;;;;;;28.76;31.90;96558.38;4935048;28;21368;-33
2021/07/03 11:07:42;;;;;;;8.60;4.07;;;;;;;28.76;31.90;96558.38;4937059;28;20050;-29
2021/07/03 11:10:12;;;;;;;17.17;4.57;;;;;;;28.75;31.78;96547.00;4929168;28;20204;-31
2021/07/03 11:12:48;;;;;;;23.73;4.85;;;;;;;28.77;32.06;96547.75;4930706;28;20160;-30
2021/07/03 11:15:15;;;;;;;10.35;3.88;;;;;;;28.79;32.37;96547.59;4930696;28;20034;-35
2021/07/03 11:17:41;;;;;;;12.50;4.20;;;;;;;28.79;32.01;96540.56;4929267;28;20046;-31
2021/07/03 11:20:06;;;;;;;11.23;4.38;;;;;;;28.79;31.48;96531.78;4932301;28;20863;-32
2021/07/03 11:22:32;;;;;;;10.00;4.15;;;;;;;28.79;31.55;96532.66;4927427;28;20027;-35
2021/07/03 11:24:58;;;;;;;6.00;3.85;;;;;;;28.79;31.34;96531.78;4934029;28;20508;-31
2021/07/03 11:27:32;;;;;;;17.83;4.43;;;;;;;28.80;31.22;96525.59;4933606;28;20521;-35
2021/07/03 11:30:05;;;;;;;15.40;4.28;;;;;;;28.81;31.29;96527.25;4926328;28;20109;-34
2021/07/03 11:32:30;;;;;;;14.40;4.30;;;;;;;28.81;31.60;96524.63;4927926;28;20429;-32
2021/07/03 11:34:57;;;;;;;23.58;4.30;;;;;;;28.81;31.86;96524.63;4927355;28;20034;-33